Time;durP1;ratioP1;P1;durP2;ratioP2;P2;SDS_P1;SDS_P2;PMS_P1;PMS_P2;Temp;Humidity;BMP_temperature;BMP_pressure;BME280_temperature;BME280_humidity;BME280_pressure;Samples;Min_cycle;Max_cycle;Signal;HPM_P1;HPM_P2
2021/05/23 00:02:11;;;;;;;23.35;19.10;;;;;;;14.56;61.08;100842.78;4987965;28;124055;-65
2021/05/23 00:04:39;;;;;;;23.77;18.33;;;;;;;14.54;61.19;100834.03;4987747;28;123787;-64
2021/05/23 00:07:08;;;;;;;21.98;17.85;;;;;;;14.54;61.17;100843.81;4988226;28;114190;-64
2021/05/23 00:09:36;;;;;;;23.25;18.67;;;;;;;14.54;61.25;100839.34;4988887;28;114151;-65
2021/05/23 00:12:05;;;;;;;23.95;18.80;;;;;;;14.53;61.15;100836.78;4988032;28;124034;-65
2021/05/23 00:14:32;;;;;;;23.30;18.88;;;;;;;14.52;61.54;100835.94;4989134;28;122550;-65
2021/05/23 00:17:00;;;;;;;24.35;18.67;;;;;;;14.51;61.37;100839.53;4988859;28;114787;-64
2021/05/23 00:19:27;;;;;;;26.65;17.90;;;;;;;14.52;61.35;100835.94;4990729;28;115034;-65
2021/05/23 00:21:55;;;;;;;24.48;18.67;;;;;;;14.54;61.16;100847.34;4988844;28;123468;-65
2021/05/23 00:24:24;;;;;;;24.98;18.60;;;;;;;14.54;61.36;100850.00;4988389;28;124092;-64
2021/05/23 00:26:52;;;;;;;24.58;18.67;;;;;;;14.55;61.35;100841.06;4989336;28;114274;-65
2021/05/23 00:29:20;;;;;;;25.02;19.30;;;;;;;14.56;61.54;100845.44;4987842;28;116277;-64
2021/05/23 00:31:47;;;;;;;26.30;19.27;;;;;;;14.57;61.41;100849.00;4989767;28;123872;-65
2021/05/23 00:34:14;;;;;;;25.75;20.35;;;;;;;14.56;61.35;100847.22;4990694;28;124028;-65
2021/05/23 00:36:42;;;;;;;27.90;20.05;;;;;;;14.54;61.36;100844.69;4985706;28;114749;-64
2021/05/23 00:39:09;;;;;;;26.73;20.45;;;;;;;14.55;61.43;100846.38;4988287;28;114373;-64
2021/05/23 00:41:36;;;;;;;28.08;21.17;;;;;;;14.54;61.49;100844.69;4988307;28;123981;-64
2021/05/23 00:44:04;;;;;;;29.20;21.73;;;;;;;14.54;61.48;100850.00;4988537;28;122928;-64
2021/05/23 00:46:31;;;;;;;31.30;23.00;;;;;;;14.54;61.64;100850.00;4990104;28;114262;-65
2021/05/23 00:48:58;;;;;;;31.25;22.67;;;;;;;14.54;61.42;100844.69;4987803;28;114394;-65
2021/05/23 00:51:25;;;;;;;33.70;23.58;;;;;;;14.52;61.46;100846.59;4989987;28;124660;-65
2021/05/23 00:53:52;;;;;;;31.40;23.88;;;;;;;14.52;61.75;100846.59;4991873;28;123998;-64
2021/05/23 00:56:20;;;;;;;32.28;24.70;;;;;;;14.54;61.61;100855.34;4992604;28;114448;-64
2021/05/23 00:58:47;;;;;;;34.55;25.75;;;;;;;14.53;61.47;100858.94;4990853;28;114431;-65
2021/05/23 01:01:43;;;;;;;36.65;26.08;;;;;;;14.51;61.39;100852.84;5009043;28;123231;-64
2021/05/23 01:04:11;;;;;;;35.63;25.02;;;;;;;14.51;61.39;100855.53;4991345;28;123149;-64
2021/05/23 01:06:38;;;;;;;35.28;26.00;;;;;;;14.49;61.61;100852.09;4991774;28;115599;-65
2021/05/23 01:09:08;;;;;;;36.20;25.08;;;;;;;14.46;61.56;100857.59;4992144;28;115671;-64
2021/05/23 01:12:13;;;;;;;34.20;25.08;;;;;;;14.45;61.43;100858.56;4993086;28;124803;-64
2021/05/23 01:14:46;;;;;;;35.28;25.65;;;;;;;14.45;61.45;100865.69;4990664;28;125186;-64
2021/05/23 01:17:14;;;;;;;36.67;26.58;;;;;;;14.45;61.53;100866.56;4992260;28;114126;-64
2021/05/23 01:20:01;;;;;;;37.63;27.08;;;;;;;14.42;61.53;100866.75;4990015;28;114341;-64
2021/05/23 01:22:41;;;;;;;39.63;27.25;;;;;;;14.41;61.54;100863.22;4990595;28;123941;-65
2021/05/23 01:25:17;;;;;;;36.38;27.05;;;;;;;14.39;61.69;100861.59;4980867;28;123769;-64
2021/05/23 01:27:48;;;;;;;37.78;26.30;;;;;;;14.39;61.69;100856.25;4991193;28;114301;-65
2021/05/23 01:30:23;;;;;;;39.53;27.35;;;;;;;14.39;61.69;100858.91;4992359;28;114267;-64
2021/05/23 01:32:54;;;;;;;37.95;27.27;;;;;;;14.40;61.63;100863.31;4988320;28;124098;-65
2021/05/23 01:35:24;;;;;;;37.88;26.98;;;;;;;14.40;61.68;100868.66;4987137;28;125195;-65
2021/05/23 01:37:59;;;;;;;41.10;27.50;;;;;;;14.41;61.68;100865.88;4990817;28;113155;-64
2021/05/23 01:40:29;;;;;;;37.07;27.23;;;;;;;14.41;61.60;100859.72;4988771;28;114133;-65
2021/05/23 01:42:57;;;;;;;38.95;26.55;;;;;;;14.39;61.69;100861.59;4990085;28;124555;-65
2021/05/23 01:45:26;;;;;;;36.60;27.00;;;;;;;14.39;61.64;100872.25;5003583;28;123030;-65
2021/05/23 01:47:53;;;;;;;39.03;26.33;;;;;;;14.39;61.71;100869.56;4991814;28;114069;-65
2021/05/23 01:50:20;;;;;;;38.78;27.40;;;;;;;14.39;61.76;100872.25;4990895;28;114192;-65
2021/05/23 01:52:55;;;;;;;35.60;26.20;;;;;;;14.36;61.86;100869.78;4991959;28;123996;-65
2021/05/23 01:55:23;;;;;;;37.83;27.50;;;;;;;14.36;61.79;100867.13;4989952;28;124018;-64
2021/05/23 01:57:51;;;;;;;39.50;27.40;;;;;;;14.37;61.92;100869.69;4991690;28;115392;-65
2021/05/23 02:00:21;;;;;;;39.17;28.65;;;;;;;14.37;61.96;100869.69;4989893;28;115171;-64
2021/05/23 02:02:48;;;;;;;38.17;26.90;;;;;;;14.37;61.88;100874.16;4990798;28;124663;-64
2021/05/23 02:05:16;;;;;;;39.42;27.50;;;;;;;14.36;62.01;100875.13;4989569;28;124661;-64
2021/05/23 02:07:44;;;;;;;37.90;27.73;;;;;;;14.36;62.05;100875.13;4989833;28;114212;-64
2021/05/23 02:10:15;;;;;;;40.47;28.85;;;;;;;14.36;62.01;100877.78;4992472;28;114097;-64
2021/05/23 02:12:44;;;;;;;40.40;28.73;;;;;;;14.36;62.19;100872.44;4987123;28;124251;-65
2021/05/23 02:15:16;;;;;;;42.10;29.33;;;;;;;14.36;62.17;100872.44;4990763;28;123892;-65
2021/05/23 02:17:45;;;;;;;43.38;30.13;;;;;;;14.37;62.17;100880.34;4989191;28;114595;-64
2021/05/23 02:20:19;;;;;;;43.28;29.73;;;;;;;14.37;62.08;100884.81;4989973;28;114361;-65
2021/05/23 02:22:49;;;;;;;41.38;29.02;;;;;;;14.35;62.09;100876.06;4987106;28;124071;-64
2021/05/23 02:25:18;;;;;;;40.95;29.25;;;;;;;14.36;62.14;100888.44;4989569;28;124195;-65
2021/05/23 02:27:50;;;;;;;43.63;30.50;;;;;;;14.36;62.26;100883.09;4991400;28;114298;-64
2021/05/23 02:30:24;;;;;;;46.10;30.75;;;;;;;14.35;62.12;100881.38;4989391;28;114298;-65
2021/05/23 02:32:51;;;;;;;43.90;30.63;;;;;;;14.36;62.11;100883.09;4989190;28;124394;-64
2021/05/23 02:35:21;;;;;;;49.53;32.05;;;;;;;14.36;62.21;100877.78;4989094;28;124200;-64
2021/05/23 02:37:49;;;;;;;47.65;32.20;;;;;;;14.35;62.21;100881.38;4991454;28;114821;-64
2021/05/23 02:40:19;;;;;;;48.80;31.52;;;;;;;14.36;62.29;100888.44;4990101;28;114484;-64
2021/05/23 02:42:47;;;;;;;49.92;31.65;;;;;;;14.37;62.33;100884.81;4989195;28;124177;-65
2021/05/23 02:45:17;;;;;;;48.72;32.60;;;;;;;14.37;62.38;100884.81;4989196;28;124282;-64
2021/05/23 02:47:45;;;;;;;46.35;32.67;;;;;;;14.39;62.22;100882.91;4989111;28;114730;-64
2021/05/23 02:50:20;;;;;;;48.53;32.38;;;;;;;14.39;62.34;100894.44;4989346;28;115231;-64
2021/05/23 02:52:47;;;;;;;45.85;32.25;;;;;;;14.40;62.21;100892.63;4988922;28;124871;-64
2021/05/23 02:55:16;;;;;;;48.25;33.60;;;;;;;14.39;62.21;100888.22;4990537;28;124105;-65
2021/05/23 02:57:44;;;;;;;46.28;32.40;;;;;;;14.38;62.28;100897.19;4989045;28;114185;-64
2021/05/23 03:00:14;;;;;;;47.88;32.08;;;;;;;14.37;62.23;100898.13;4989343;28;114096;-64
2021/05/23 03:02:42;;;;;;;48.00;31.63;;;;;;;14.35;62.12;100887.59;4989227;28;124995;-65
2021/05/23 03:05:11;;;;;;;49.08;31.92;;;;;;;14.36;62.19;100891.09;4989134;28;124136;-65
2021/05/23 03:07:41;;;;;;;48.35;31.15;;;;;;;14.36;62.21;100893.75;4990604;28;114183;-65
2021/05/23 03:10:14;;;;;;;46.58;31.92;;;;;;;14.36;62.31;100899.09;4989314;28;114759;-65
2021/05/23 03:12:42;;;;;;;46.42;31.35;;;;;;;14.36;62.24;100893.75;4987817;28;124617;-65
2021/05/23 03:15:14;;;;;;;45.45;31.35;;;;;;;14.36;62.27;100899.09;4990397;28;124539;-65
2021/05/23 03:17:41;;;;;;;44.17;31.92;;;;;;;14.37;62.30;100900.78;4990469;28;114628;-65
2021/05/23 03:20:10;;;;;;;48.70;32.08;;;;;;;14.37;62.14;100912.34;4989230;28;114002;-64
2021/05/23 03:22:38;;;;;;;46.65;31.80;;;;;;;14.37;62.20;100916.78;4989751;28;123685;-64
2021/05/23 03:25:08;;;;;;;45.58;32.65;;;;;;;14.36;62.26;100921.25;4990024;28;123967;-65
2021/05/23 03:27:36;;;;;;;45.42;32.35;;;;;;;14.35;62.21;100914.22;4990410;28;114883;-64
2021/05/23 03:30:06;;;;;;;47.85;33.10;;;;;;;14.34;62.30;100927.63;4990270;28;113625;-65
2021/05/23 03:32:33;;;;;;;47.80;32.50;;;;;;;14.34;62.39;100928.50;4989884;28;124298;-64
2021/05/23 03:35:02;;;;;;;47.83;33.38;;;;;;;14.35;62.26;100924.00;4989341;28;124005;-64
2021/05/23 03:37:29;;;;;;;48.88;31.98;;;;;;;14.37;62.28;100922.09;4989142;28;115241;-64
2021/05/23 03:39:57;;;;;;;44.55;30.83;;;;;;;14.37;62.28;100923.00;4985038;28;115021;-64
2021/05/23 03:42:24;;;;;;;43.45;31.10;;;;;;;14.36;62.29;100931.06;4985322;28;124859;-64
2021/05/23 03:44:51;;;;;;;42.80;30.52;;;;;;;14.37;62.32;100932.75;4988528;28;124024;-64
2021/05/23 03:47:18;;;;;;;41.85;31.23;;;;;;;14.36;62.33;100926.59;4984753;28;114455;-64
2021/05/23 03:49:46;;;;;;;44.22;29.92;;;;;;;14.38;62.31;100931.84;4989615;28;114280;-64
2021/05/23 03:52:14;;;;;;;46.10;31.23;;;;;;;14.37;62.27;100932.75;4990265;28;123857;-65
2021/05/23 03:54:41;;;;;;;44.45;30.65;;;;;;;14.38;62.28;100929.16;4988994;28;123973;-64
2021/05/23 03:57:08;;;;;;;41.92;29.73;;;;;;;14.38;62.26;100930.00;4989562;28;114217;-64
2021/05/23 03:59:35;;;;;;;41.65;29.13;;;;;;;14.39;62.38;100930.88;4990243;28;113423;-64
2021/05/23 04:02:02;;;;;;;39.72;29.00;;;;;;;14.39;62.34;100936.19;4989640;28;124916;-64
2021/05/23 04:04:46;;;;;;;40.55;28.05;;;;;;;14.38;62.38;100940.69;4991123;28;124354;-65
2021/05/23 04:07:15;;;;;;;38.58;28.38;;;;;;;14.37;62.08;100948.75;4989620;28;114264;-65
2021/05/23 04:09:42;;;;;;;37.05;26.45;;;;;;;14.35;62.30;100950.66;4988711;28;114658;-65
2021/05/23 04:12:11;;;;;;;39.55;26.88;;;;;;;14.35;62.33;100961.31;4988320;28;124180;-64
2021/05/23 04:14:38;;;;;;;37.28;27.23;;;;;;;14.36;62.24;100957.72;4988624;28;123941;-65
2021/05/23 04:17:05;;;;;;;41.15;26.45;;;;;;;14.37;62.31;100959.41;4989598;28;114217;-65
2021/05/23 04:19:34;;;;;;;36.45;26.88;;;;;;;14.36;62.44;100952.38;4988897;28;114141;-65
2021/05/23 04:22:04;;;;;;;34.88;25.42;;;;;;;14.36;62.72;100957.72;4988373;28;124309;-65
2021/05/23 04:24:34;;;;;;;40.50;26.33;;;;;;;14.35;62.48;100955.97;4988225;28;124172;-65
2021/05/23 04:27:01;;;;;;;35.75;25.45;;;;;;;14.36;62.32;100958.56;4990986;28;115386;-65
2021/05/23 04:29:30;;;;;;;32.78;25.08;;;;;;;14.37;62.42;100964.75;4994665;28;115401;-65
2021/05/23 04:31:59;;;;;;;34.88;25.77;;;;;;;14.37;62.35;100964.75;4994299;28;124594;-65
2021/05/23 04:34:26;;;;;;;32.97;24.52;;;;;;;14.38;62.50;100966.47;4994047;28;124667;-65
2021/05/23 04:36:54;;;;;;;35.05;24.38;;;;;;;14.39;62.51;100973.50;4990736;28;114899;-64
2021/05/23 04:39:21;;;;;;;32.33;24.27;;;;;;;14.38;62.55;100971.81;4993471;28;114266;-65
2021/05/23 04:41:49;;;;;;;37.35;25.33;;;;;;;14.40;62.41;100975.22;4993769;28;124566;-65
2021/05/23 04:44:16;;;;;;;38.95;24.67;;;;;;;14.41;62.23;100976.97;4994556;28;124245;-64
2021/05/23 04:46:43;;;;;;;32.58;23.42;;;;;;;14.41;62.40;100983.13;4993768;28;114784;-64
2021/05/23 04:49:10;;;;;;;35.53;24.75;;;;;;;14.43;62.45;100985.72;4991358;28;114211;-64
2021/05/23 04:51:38;;;;;;;32.80;22.92;;;;;;;14.44;62.40;100982.09;4992128;28;124232;-64
2021/05/23 04:54:05;;;;;;;32.65;22.70;;;;;;;14.44;62.48;100987.41;5004061;28;123136;-64
2021/05/23 04:56:32;;;;;;;34.60;23.50;;;;;;;14.45;62.50;100983.81;4992729;28;114580;-64
2021/05/23 04:58:59;;;;;;;30.67;22.35;;;;;;;14.45;62.74;100983.81;4993494;28;114380;-64
2021/05/23 05:01:26;;;;;;;33.00;21.75;;;;;;;14.47;62.45;100987.25;4993962;28;124575;-64
2021/05/23 05:03:53;;;;;;;29.95;20.40;;;;;;;14.48;62.40;100991.63;4992084;28;123839;-64
2021/05/23 05:06:20;;;;;;;30.73;20.75;;;;;;;14.47;62.46;100981.91;4992631;28;114478;-64
2021/05/23 05:08:47;;;;;;;25.85;18.70;;;;;;;14.48;62.43;100993.44;4991498;28;114214;-64
2021/05/23 05:11:15;;;;;;;30.17;19.70;;;;;;;14.47;62.49;100991.72;4993561;28;125003;-64
2021/05/23 05:13:42;;;;;;;25.80;18.55;;;;;;;14.46;62.37;101004.16;4992697;28;123704;-64
2021/05/23 05:16:09;;;;;;;29.77;17.27;;;;;;;14.47;62.26;100997.91;4992234;28;114362;-64
2021/05/23 05:18:36;;;;;;;26.23;17.17;;;;;;;14.47;62.41;101000.56;4991950;28;115249;-64
2021/05/23 05:21:04;;;;;;;22.58;14.63;;;;;;;14.48;62.33;101002.28;4992317;28;123104;-64
2021/05/23 05:23:31;;;;;;;23.65;13.82;;;;;;;14.48;62.20;101004.09;4991897;28;122702;-64
2021/05/23 05:26:01;;;;;;;22.65;12.88;;;;;;;14.46;61.97;101001.50;4992411;28;114455;-64
2021/05/23 05:28:28;;;;;;;22.42;12.65;;;;;;;14.42;61.89;101005.31;4990303;28;114483;-64
2021/05/23 05:30:55;;;;;;;19.48;12.57;;;;;;;14.39;61.93;101005.47;4990778;28;124259;-64
2021/05/23 05:33:22;;;;;;;24.42;12.75;;;;;;;14.38;62.00;101009.09;4989618;28;124181;-64
2021/05/23 05:35:49;;;;;;;20.15;11.85;;;;;;;14.38;62.22;101009.09;4993067;28;114412;-63
2021/05/23 05:38:17;;;;;;;25.77;12.48;;;;;;;14.40;62.22;101017.88;4989562;28;114313;-63
2021/05/23 05:40:44;;;;;;;18.25;11.00;;;;;;;14.42;62.14;101015.97;4992626;28;124306;-63
2021/05/23 05:43:11;;;;;;;16.60;10.40;;;;;;;14.44;62.11;101024.72;4990939;28;124267;-63
2021/05/23 05:45:39;;;;;;;18.00;8.75;;;;;;;14.46;61.98;101033.50;4990953;28;115159;-63
2021/05/23 05:48:06;;;;;;;17.13;8.25;;;;;;;14.47;61.87;101029.88;5004947;28;113069;-62
2021/05/23 05:50:33;;;;;;;16.25;7.32;;;;;;;14.47;61.91;101035.22;5001790;22;123988;-67
2021/05/23 05:53:00;;;;;;;18.23;6.60;;;;;;;14.48;61.64;101038.72;4991695;28;124580;-67
2021/05/23 05:55:27;;;;;;;16.35;6.30;;;;;;;14.46;61.42;101043.28;4992850;28;115286;-67
2021/05/23 05:57:54;;;;;;;12.35;6.40;;;;;;;14.43;61.32;101039.00;4990987;28;114033;-67
2021/05/23 06:00:22;;;;;;;13.32;6.22;;;;;;;14.43;61.32;101038.13;4988880;28;124560;-68
2021/05/23 06:02:49;;;;;;;17.48;6.38;;;;;;;14.44;61.39;101040.72;4989334;28;123627;-67
2021/05/23 06:05:16;;;;;;;15.88;6.22;;;;;;;14.46;61.48;101049.47;4988258;28;114262;-67
2021/05/23 06:07:44;;;;;;;15.95;6.38;;;;;;;14.45;61.36;101042.44;4989186;28;115209;-68
2021/05/23 06:10:12;;;;;;;17.50;6.22;;;;;;;14.47;61.09;101051.22;4971794;28;123525;-71
2021/05/23 06:12:40;;;;;;;17.02;6.00;;;;;;;14.47;61.00;101045.88;4989301;28;123117;-67
2021/05/23 06:15:08;;;;;;;13.05;5.75;;;;;;;14.47;60.77;101056.53;4984205;28;114922;-67
2021/05/23 06:17:36;;;;;;;15.15;5.80;;;;;;;14.46;60.87;101065.47;4985987;28;113917;-67
2021/05/23 06:20:05;;;;;;;15.20;5.45;;;;;;;14.45;60.67;101058.44;4989550;28;123313;-67
2021/05/23 06:22:32;;;;;;;13.23;5.38;;;;;;;14.45;60.65;101057.56;4989890;28;124004;-67
2021/05/23 06:24:59;;;;;;;13.38;5.25;;;;;;;14.44;60.57;101059.38;4986929;28;112956;-67
2021/05/23 06:27:27;;;;;;;11.20;4.90;;;;;;;14.47;60.48;101067.19;4991712;28;114049;-67
2021/05/23 06:29:54;;;;;;;13.15;4.57;;;;;;;14.47;60.44;101061.03;4988951;28;124145;-67
2021/05/23 06:32:21;;;;;;;10.80;4.63;;;;;;;14.49;60.26;101070.63;4991675;28;124597;-66
2021/05/23 06:34:48;;;;;;;17.80;5.05;;;;;;;14.48;60.56;101068.91;5005809;28;114299;-67
2021/05/23 06:37:15;;;;;;;12.23;4.85;;;;;;;14.50;60.21;101077.66;4988780;28;114301;-67
2021/05/23 06:39:43;;;;;;;13.02;4.70;;;;;;;14.50;60.05;101087.47;4991054;28;124053;-67
2021/05/23 06:42:10;;;;;;;13.10;4.47;;;;;;;14.47;59.94;101085.84;4991533;28;125073;-67
2021/05/23 06:44:37;;;;;;;15.38;4.28;;;;;;;14.43;59.89;101100.31;4988481;28;114009;-67
2021/05/23 06:47:04;;;;;;;10.55;4.15;;;;;;;14.40;59.84;101098.66;4991148;28;114347;-67
2021/05/23 06:49:31;;;;;;;14.18;4.28;;;;;;;14.38;59.93;101105.88;4992006;28;124416;-67
2021/05/23 06:51:59;;;;;;;14.65;4.45;;;;;;;14.39;60.00;101106.72;4990636;28;124677;-66
2021/05/23 06:54:27;;;;;;;11.50;4.28;;;;;;;14.39;59.69;101112.94;4973200;28;114146;-66
2021/05/23 06:56:54;;;;;;;9.23;3.63;;;;;;;14.38;59.83;101107.69;4991260;28;116101;-66
2021/05/23 06:59:23;;;;;;;11.68;3.50;;;;;;;14.37;59.79;101113.97;4987134;28;124093;-67
2021/05/23 07:01:50;;;;;;;14.40;3.58;;;;;;;14.37;59.56;101109.50;4988843;28;124303;-67
2021/05/23 07:04:17;;;;;;;11.93;3.80;;;;;;;14.39;59.36;101112.06;4990668;28;114170;-66
2021/05/23 07:06:44;;;;;;;14.10;4.00;;;;;;;14.37;59.38;101113.97;4991092;28;114313;-66
2021/05/23 07:09:11;;;;;;;11.13;4.30;;;;;;;14.37;59.53;101120.16;4990354;28;124372;-67
2021/05/23 07:11:38;;;;;;;17.95;4.22;;;;;;;14.39;59.38;101128.06;4985690;28;124478;-66
2021/05/23 07:14:06;;;;;;;13.95;3.97;;;;;;;14.40;59.24;101124.47;4989759;28;114521;-66
2021/05/23 07:16:33;;;;;;;8.68;3.55;;;;;;;14.40;59.16;101124.47;4990622;28;114275;-66
2021/05/23 07:19:00;;;;;;;12.75;4.25;;;;;;;14.42;59.34;101127.88;4987603;28;123427;-66
2021/05/23 07:21:27;;;;;;;14.07;4.15;;;;;;;14.45;59.14;101127.72;4988299;28;124189;-66
2021/05/23 07:23:55;;;;;;;12.25;4.00;;;;;;;14.47;59.01;101131.16;4991085;28;114709;-66
2021/05/23 07:26:22;;;;;;;12.80;4.07;;;;;;;14.55;59.15;101133.38;4990931;28;114391;-66
2021/05/23 07:28:49;;;;;;;12.57;3.90;;;;;;;14.62;59.34;101128.56;4991032;28;123762;-66
2021/05/23 07:31:16;;;;;;;15.82;4.55;;;;;;;14.72;58.87;101135.13;4990572;28;123795;-67
2021/05/23 07:33:43;;;;;;;12.35;4.07;;;;;;;14.77;58.92;101133.06;4990874;28;114016;-67
2021/05/23 07:36:11;;;;;;;15.60;3.70;;;;;;;14.84;58.75;101133.53;4991480;28;114228;-66
2021/05/23 07:38:40;;;;;;;14.38;3.95;;;;;;;14.89;58.54;101127.00;4989254;28;123955;-67
2021/05/23 07:41:07;;;;;;;11.57;3.80;;;;;;;15.01;58.47;101135.22;4986684;28;124035;-66
2021/05/23 07:43:35;;;;;;;11.18;3.95;;;;;;;15.08;58.47;101142.75;4984672;28;115161;-66
2021/05/23 07:46:02;;;;;;;8.25;3.47;;;;;;;15.12;58.04;101143.44;4984270;28;114814;-67
2021/05/23 07:48:30;;;;;;;13.63;4.07;;;;;;;15.15;57.67;101151.28;4972266;28;123461;-66
2021/05/23 07:50:58;;;;;;;12.05;4.07;;;;;;;15.15;57.45;101153.94;4990622;28;124127;-67
2021/05/23 07:53:25;;;;;;;11.40;3.88;;;;;;;15.17;57.47;101152.03;4989330;28;113550;-66
2021/05/23 07:55:53;;;;;;;12.70;3.90;;;;;;;15.21;57.60;101158.06;4988285;28;113081;-67
2021/05/23 07:58:22;;;;;;;8.77;3.92;;;;;;;15.24;57.57;101156.06;4990266;28;124381;-67
2021/05/23 08:00:49;;;;;;;9.45;4.22;;;;;;;15.27;57.12;101163.88;4990632;28;124025;-67
2021/05/23 08:03:17;;;;;;;12.38;4.70;;;;;;;15.29;57.18;101164.63;4987391;28;114404;-66
2021/05/23 08:05:44;;;;;;;12.07;4.93;;;;;;;15.34;57.27;101167.91;4989538;28;113935;-67
2021/05/23 08:08:12;;;;;;;9.88;4.35;;;;;;;15.40;57.21;101165.81;4971975;28;122933;-66
2021/05/23 08:10:39;;;;;;;9.30;4.50;;;;;;;15.43;56.94;101165.66;4988974;28;123639;-67
2021/05/23 08:13:06;;;;;;;10.60;4.53;;;;;;;15.46;56.93;101163.63;5002962;28;114501;-67
2021/05/23 08:15:33;;;;;;;11.10;4.93;;;;;;;15.51;56.71;101182.91;4982237;28;114138;-67
2021/05/23 08:18:01;;;;;;;11.20;4.50;;;;;;;15.59;56.75;101174.41;4988757;28;123785;-67
2021/05/23 08:20:28;;;;;;;10.68;4.43;;;;;;;15.65;56.42;101182.09;4990590;28;124563;-67
2021/05/23 08:22:55;;;;;;;11.30;3.55;;;;;;;15.71;56.13;101189.72;4990929;28;114406;-67
2021/05/23 08:25:22;;;;;;;9.00;3.65;;;;;;;15.76;55.88;101182.31;4991405;28;113763;-67
2021/05/23 08:27:49;;;;;;;11.32;3.97;;;;;;;15.83;55.96;101187.28;4989407;28;123809;-67
2021/05/23 08:30:16;;;;;;;11.77;3.53;;;;;;;15.89;55.47;101181.53;4990015;28;124109;-68
2021/05/23 08:32:43;;;;;;;7.93;3.28;;;;;;;15.95;55.39;101194.50;4987789;28;114548;-67
2021/05/23 08:35:11;;;;;;;9.27;3.10;;;;;;;16.04;55.17;101199.28;4989397;28;115354;-67
2021/05/23 08:37:39;;;;;;;8.13;2.50;;;;;;;16.08;54.30;101206.16;4988575;28;124666;-67
2021/05/23 08:40:07;;;;;;;10.23;2.97;;;;;;;16.09;54.21;101205.22;4989930;28;124595;-67
2021/05/23 08:42:36;;;;;;;8.32;2.58;;;;;;;16.15;54.16;101210.16;4990125;28;114173;-67
2021/05/23 08:45:07;;;;;;;9.77;2.80;;;;;;;16.24;53.98;101202.53;4990173;28;113370;-67
2021/05/23 08:47:45;;;;;;;5.50;2.33;;;;;;;16.32;53.56;101211.78;4971693;28;122165;-66
2021/05/23 08:50:17;;;;;;;11.23;2.88;;;;;;;16.37;53.02;101223.97;4987349;28;123898;-66
2021/05/23 08:52:44;;;;;;;5.70;2.60;;;;;;;16.36;52.62;101225.81;4987153;28;115117;-66
2021/05/23 08:55:15;;;;;;;6.75;2.38;;;;;;;16.33;52.39;101221.53;4989852;28;114050;-68
2021/05/23 08:57:42;;;;;;;11.05;2.90;;;;;;;16.34;52.22;101214.34;4989408;28;124048;-66
2021/05/23 09:00:10;;;;;;;8.23;2.60;;;;;;;16.32;51.69;101221.63;4987641;28;122376;-66
2021/05/23 09:02:58;;;;;;;10.35;2.58;;;;;;;16.26;51.63;101222.84;4972284;28;113448;-67
2021/05/23 09:05:41;;;;;;;8.55;2.30;;;;;;;16.24;51.47;101229.25;4989634;28;113794;-67
2021/05/23 09:08:14;;;;;;;8.55;2.90;;;;;;;16.25;51.94;101230.97;4985994;28;123869;-66
2021/05/23 09:10:43;;;;;;;9.05;2.80;;;;;;;16.32;51.90;101240.31;4988392;28;123143;-66
2021/05/23 09:13:12;;;;;;;6.88;2.45;;;;;;;16.38;52.25;101241.75;4989420;28;113509;-66
2021/05/23 09:15:40;;;;;;;9.13;2.78;;;;;;;16.43;51.92;101245.84;4992724;28;114297;-66
2021/05/23 09:18:10;;;;;;;12.93;2.70;;;;;;;16.45;51.46;101248.44;4992475;28;123895;-67
2021/05/23 09:20:40;;;;;;;7.78;2.60;;;;;;;16.48;51.19;101254.44;4975391;28;123611;-67
2021/05/23 09:23:13;;;;;;;7.22;2.75;;;;;;;16.50;51.07;101257.88;4990680;28;117209;-66
2021/05/23 09:25:40;;;;;;;7.00;2.70;;;;;;;16.54;50.85;101254.06;4993644;28;115515;-66
2021/05/23 09:28:08;;;;;;;8.40;2.65;;;;;;;16.57;50.41;101262.84;4991822;28;124302;-67
2021/05/23 09:30:40;;;;;;;5.28;2.80;;;;;;;16.65;50.55;101260.53;4992570;28;123619;-67
2021/05/23 09:33:10;;;;;;;6.07;2.83;;;;;;;16.76;50.62;101258.00;4989852;28;114356;-66
2021/05/23 09:35:43;;;;;;;8.43;2.80;;;;;;;16.86;50.48;101264.53;4992108;28;114826;-67
2021/05/23 09:38:12;;;;;;;5.90;2.30;;;;;;;16.96;50.51;101263.94;4990739;28;123814;-66
2021/05/23 09:40:42;;;;;;;7.50;1.98;;;;;;;17.02;49.73;101263.53;4992521;28;124698;-67
2021/05/23 09:43:16;;;;;;;5.82;1.98;;;;;;;17.05;49.34;101271.38;4974826;28;113311;-66
2021/05/23 09:45:48;;;;;;;5.68;2.20;;;;;;;17.09;49.20;101268.38;4990094;28;114374;-67
2021/05/23 09:48:18;;;;;;;7.22;2.13;;;;;;;17.20;48.88;101267.69;4987314;28;123869;-67
2021/05/23 09:50:48;;;;;;;5.15;1.90;;;;;;;17.31;48.77;101275.00;4991135;28;124184;-66
2021/05/23 09:53:16;;;;;;;5.70;2.00;;;;;;;17.43;48.48;101267.97;5007207;28;113441;-67
2021/05/23 09:56:11;;;;;;;6.78;1.75;;;;;;;17.56;48.77;101274.22;4994139;28;113956;-67
2021/05/23 09:58:47;;;;;;;8.77;1.90;;;;;;;17.76;48.97;101269.31;4988515;28;124801;-67
2021/05/23 10:01:27;;;;;;;6.90;1.98;;;;;;;17.98;49.14;101285.66;4991859;28;123794;-66
2021/05/23 10:03:56;;;;;;;7.07;1.92;;;;;;;18.16;48.64;101271.91;4989528;28;113164;-67
2021/05/23 10:06:36;;;;;;;9.30;2.40;;;;;;;18.25;47.71;101276.63;4991601;28;113201;-66
2021/05/23 10:09:05;;;;;;;7.97;2.00;;;;;;;18.26;47.05;101275.69;4990800;28;124103;-67
2021/05/23 10:11:32;;;;;;;6.38;2.10;;;;;;;18.23;46.69;101275.91;4991906;28;124150;-67
2021/05/23 10:13:59;;;;;;;7.13;1.75;;;;;;;18.18;45.60;101281.59;4992168;28;115010;-67
2021/05/23 10:16:26;;;;;;;6.82;1.60;;;;;;;18.12;45.60;101281.16;4992160;28;115211;-67
2021/05/23 10:18:55;;;;;;;4.80;1.73;;;;;;;18.14;45.49;101276.53;4979773;28;124045;-67
2021/05/23 10:21:26;;;;;;;4.38;1.55;;;;;;;18.22;44.80;101287.59;4989088;28;124019;-67
2021/05/23 10:23:59;;;;;;;5.15;1.45;;;;;;;18.33;45.17;101289.50;4988225;28;114070;-67
2021/05/23 10:26:48;;;;;;;4.85;1.70;;;;;;;18.45;44.84;101294.88;4990462;28;113836;-67
2021/05/23 10:29:17;;;;;;;7.47;1.50;;;;;;;18.59;44.73;101290.34;4983063;28;123861;-68
2021/05/23 10:31:45;;;;;;;7.30;1.58;;;;;;;18.71;43.87;101289.47;4990865;28;124133;-67
2021/05/23 10:34:12;;;;;;;3.88;1.40;;;;;;;18.73;43.58;101303.63;4992358;28;114564;-67
2021/05/23 10:36:42;;;;;;;6.28;1.33;;;;;;;18.67;42.38;101304.06;4990388;28;114500;-67
2021/05/23 10:39:14;;;;;;;4.43;1.45;;;;;;;18.56;42.14;101304.00;4988041;28;125791;-67
2021/05/23 10:41:43;;;;;;;4.75;1.60;;;;;;;18.43;42.04;101302.16;4986803;28;124871;-67
2021/05/23 10:44:26;;;;;;;6.97;1.75;;;;;;;18.36;42.24;101295.50;4997545;28;113463;-67
2021/05/23 10:46:53;;;;;;;5.65;1.80;;;;;;;18.37;42.23;101301.75;4990510;28;115429;-67
2021/05/23 10:49:20;;;;;;;5.50;1.58;;;;;;;18.43;42.40;101302.16;4990718;28;124646;-66
2021/05/23 10:51:55;;;;;;;3.92;1.50;;;;;;;18.51;41.97;101298.09;4992899;28;124324;-67
2021/05/23 10:54:23;;;;;;;6.30;1.48;;;;;;;18.58;42.48;101297.53;4987523;28;114372;-67
2021/05/23 10:57:04;;;;;;;5.10;1.27;;;;;;;18.71;41.90;101289.47;4990412;28;113919;-67
2021/05/23 10:59:31;;;;;;;6.20;1.70;;;;;;;18.81;41.28;101295.91;4988391;28;123837;-67
2021/05/23 11:01:59;;;;;;;5.40;1.50;;;;;;;18.90;41.42;101293.53;4988758;28;124235;-67
2021/05/23 11:04:39;;;;;;;6.53;1.60;;;;;;;18.99;41.71;101292.88;4979296;28;114566;-67
2021/05/23 11:07:09;;;;;;;5.22;1.83;;;;;;;19.10;41.16;101311.72;4991000;28;113888;-67
2021/05/23 11:09:37;;;;;;;5.32;1.75;;;;;;;19.15;40.96;101298.78;4989798;28;124045;-67
2021/05/23 11:12:10;;;;;;;4.45;1.60;;;;;;;19.19;40.89;101310.16;4987865;28;122794;-67
2021/05/23 11:14:37;;;;;;;5.43;1.60;;;;;;;19.20;40.43;101310.06;4989406;28;114692;-67
2021/05/23 11:17:07;;;;;;;6.78;1.80;;;;;;;19.19;40.42;101316.41;4990039;28;114104;-67